Time;durP1;ratioP1;P1;durP2;ratioP2;P2;SDS_P1;SDS_P2;PMS_P1;PMS_P2;Temp;Humidity;BMP_temperature;BMP_pressure;BME280_temperature;BME280_humidity;BME280_pressure;Samples;Min_cycle;Max_cycle;Signal;HPM_P1;HPM_P2
2022/08/11 00:00:00;;;;;;;6.40;2.40;;;;;;;20.95;56.77;102167.72;5084366;28;20064;-57
2022/08/11 00:02:32;;;;;;;4.72;1.90;;;;;;;20.92;57.11;102168.00;5085223;28;20491;-55
2022/08/11 00:05:06;;;;;;;4.57;2.45;;;;;;;20.93;57.13;102173.22;5084278;28;20109;-56
2022/08/11 00:07:41;;;;;;;5.72;2.08;;;;;;;20.94;57.00;102166.88;5082940;28;20487;-58
2022/08/11 00:10:12;;;;;;;7.00;2.17;;;;;;;20.94;57.40;102166.00;5084624;28;20043;-57
2022/08/11 00:12:42;;;;;;;5.47;2.03;;;;;;;20.89;57.69;102168.28;5078510;28;20101;-56
2022/08/11 00:15:13;;;;;;;7.85;2.53;;;;;;;20.91;57.53;102163.63;5082807;28;20113;-57
2022/08/11 00:17:42;;;;;;;6.80;2.60;;;;;;;20.87;58.38;102159.53;5086120;28;20048;-56
2022/08/11 00:20:14;;;;;;;5.53;2.35;;;;;;;20.80;58.35;102158.38;5088508;28;20506;-58
2022/08/11 00:22:46;;;;;;;6.53;2.50;;;;;;;20.76;58.68;102166.69;5089809;28;20056;-64
2022/08/11 00:25:18;;;;;;;5.53;2.00;;;;;;;20.77;58.80;102164.84;5081030;28;20114;-57
2022/08/11 00:27:48;;;;;;;3.58;2.30;;;;;;;20.74;59.15;102159.78;5079175;28;20067;-57
2022/08/11 00:30:18;;;;;;;5.63;2.38;;;;;;;20.64;59.58;102167.69;5084633;28;20036;-64
2022/08/11 00:32:54;;;;;;;6.05;2.33;;;;;;;20.62;59.75;102168.84;5085492;28;20052;-56
2022/08/11 00:35:30;;;;;;;7.35;2.67;;;;;;;20.54;60.25;102169.50;5085710;28;20051;-57
2022/08/11 00:38:24;;;;;;;5.88;2.58;;;;;;;20.51;60.54;102164.44;5082997;28;20083;-58
2022/08/11 00:40:59;;;;;;;6.05;2.70;;;;;;;20.51;60.96;102165.28;5079154;28;20058;-64
2022/08/11 00:43:47;;;;;;;7.28;2.72;;;;;;;20.46;61.11;102169.31;5081849;28;20126;-64
2022/08/11 00:46:29;;;;;;;4.93;2.17;;;;;;;20.49;61.07;102166.38;5086655;28;20036;-64
2022/08/11 00:49:10;;;;;;;5.40;2.60;;;;;;;20.48;61.46;102170.03;5080345;28;20047;-57
2022/08/11 00:51:54;;;;;;;4.00;2.33;;;;;;;20.43;61.63;102167.75;5078263;28;20829;-57
2022/08/11 00:55:23;;;;;;;7.43;2.60;;;;;;;20.36;61.74;102178.13;5081810;28;20080;-65
2022/08/11 00:58:22;;;;;;;6.20;2.33;;;;;;;20.34;62.24;102173.91;5073383;28;20139;-64
2022/08/11 01:01:10;;;;;;;7.05;2.40;;;;;;;20.34;62.17;102168.56;5060256;28;20105;-64
2022/08/11 01:04:14;;;;;;;8.00;2.72;;;;;;;20.22;62.31;102173.13;5084050;28;20056;-63
2022/08/11 01:07:30;;;;;;;5.00;2.30;;;;;;;20.18;62.69;102174.34;5083691;28;20494;-57
2022/08/11 01:10:45;;;;;;;4.93;2.20;;;;;;;20.17;62.97;102175.34;5044455;28;20056;-64
2022/08/11 01:13:32;;;;;;;9.95;2.63;;;;;;;20.10;63.11;102178.53;5079257;28;20040;-57
2022/08/11 01:16:30;;;;;;;7.32;2.40;;;;;;;20.14;62.98;102175.59;5086505;28;20040;-57
2022/08/11 01:19:33;;;;;;;5.97;2.67;;;;;;;20.04;63.56;102170.19;5086244;28;20040;-57
2022/08/11 01:23:02;;;;;;;5.22;2.30;;;;;;;20.01;63.59;102168.63;5082306;28;20043;-57
2022/08/11 01:26:03;;;;;;;8.97;2.90;;;;;;;19.93;64.31;102173.78;5080180;28;20395;-65
2022/08/11 01:29:10;;;;;;;6.70;2.45;;;;;;;19.91;64.47;102173.91;5079829;28;20090;-62
2022/08/11 01:32:07;;;;;;;7.00;2.40;;;;;;;19.91;64.60;102173.91;5082865;28;20048;-64
2022/08/11 01:35:17;;;;;;;6.20;2.63;;;;;;;19.87;64.87;102168.97;5083464;28;20506;-63
2022/08/11 01:38:27;;;;;;;6.22;2.40;;;;;;;19.75;65.38;102165.47;5084100;28;20454;-57
2022/08/11 01:44:38;;;;;;;3.75;2.05;;;;;;;19.69;65.53;102161.47;5082937;28;20742;-57
2022/08/11 01:50:14;;;;;;;7.10;2.35;;;;;;;19.73;65.58;102159.41;5076054;28;20048;-57
2022/08/11 01:52:59;;;;;;;5.80;2.38;;;;;;;19.69;66.10;102169.50;5086449;28;20043;-56
2022/08/11 01:55:37;;;;;;;6.75;2.40;;;;;;;19.65;66.14;102162.72;5084511;28;20115;-56
2022/08/11 01:58:15;;;;;;;7.15;2.10;;;;;;;19.55;66.41;102167.09;5083834;28;20047;-63
2022/08/11 02:00:55;;;;;;;7.50;2.33;;;;;;;19.49;66.95;102180.97;5083601;28;20058;-57
2022/08/11 02:03:28;;;;;;;7.22;2.60;;;;;;;19.52;67.35;102178.88;5081532;28;20086;-65
2022/08/11 02:06:53;;;;;;;7.53;2.67;;;;;;;19.48;67.24;102187.28;5081205;28;20082;-64
2022/08/11 02:09:02;;;;;;;7.70;3.10;;;;;;;19.42;67.95;102184.13;5081608;28;20048;-64
2022/08/11 02:11:34;;;;;;;5.72;2.50;;;;;;;19.38;68.02;102181.84;5081038;28;20415;-57
2022/08/11 02:14:21;;;;;;;4.85;2.45;;;;;;;19.34;68.45;102177.75;5082686;28;20403;-57
2022/08/11 02:17:02;;;;;;;7.07;2.55;;;;;;;19.35;68.35;102182.09;5085512;28;20044;-56
2022/08/11 02:25:27;;;;;;;11.23;2.60;;;;;;;19.34;68.61;102175.06;5081448;28;20036;-57
2022/08/11 02:28:03;;;;;;;5.30;2.28;;;;;;;19.28;68.82;102162.22;5079810;28;20818;-64
2022/08/11 02:30:35;;;;;;;7.15;2.78;;;;;;;19.28;69.16;102163.09;5085173;28;20048;-57
2022/08/11 02:33:23;;;;;;;5.78;2.75;;;;;;;19.37;68.66;102159.69;5080187;28;20403;-57
2022/08/11 02:36:01;;;;;;;8.43;2.80;;;;;;;19.27;69.40;102164.06;5084259;28;20040;-57
2022/08/11 02:38:35;;;;;;;7.75;2.40;;;;;;;19.20;69.79;102171.69;5083600;28;20062;-56
2022/08/11 02:42:21;;;;;;;5.65;2.55;;;;;;;19.16;70.22;102164.94;5078392;28;20055;-63
2022/08/11 02:44:16;;;;;;;5.25;2.30;;;;;;;19.15;70.56;102165.06;5078365;28;20036;-64
2022/08/11 02:46:56;;;;;;;5.75;2.50;;;;;;;19.12;70.48;102168.81;5086576;28;21773;-57
2022/08/11 02:49:55;;;;;;;6.22;2.80;;;;;;;19.15;70.57;102165.06;5084071;28;20403;-57
2022/08/11 02:52:41;;;;;;;6.45;2.78;;;;;;;19.13;70.63;102159.84;5080859;28;20036;-64
2022/08/11 02:55:24;;;;;;;6.45;2.60;;;;;;;19.15;70.58;102165.88;5080890;28;20047;-57
2022/08/11 02:58:21;;;;;;;5.95;2.65;;;;;;;19.17;70.53;102163.09;5084149;28;20051;-63
2022/08/11 03:01:10;;;;;;;7.00;2.65;;;;;;;19.16;70.85;102156.09;5078099;28;20078;-63
2022/08/11 03:03:47;;;;;;;5.85;2.63;;;;;;;19.13;71.28;102162.50;5076385;28;20067;-63
2022/08/11 03:06:29;;;;;;;5.78;2.60;;;;;;;19.11;71.28;102160.94;5089367;28;20528;-55
2022/08/11 03:09:06;;;;;;;4.72;2.65;;;;;;;19.07;71.77;102157.66;5088491;28;20054;-56
2022/08/11 03:18:02;;;;;;;5.22;2.90;;;;;;;18.94;73.19;102156.94;5086388;28;20044;-62
2022/08/11 03:20:38;;;;;;;7.20;2.90;;;;;;;18.93;73.39;102156.13;5081081;28;20055;-56
2022/08/11 03:23:22;;;;;;;6.13;2.78;;;;;;;18.94;73.50;102159.63;5084005;28;20044;-55
2022/08/11 03:26:01;;;;;;;6.13;3.38;;;;;;;18.86;74.09;102171.72;5082461;28;20041;-57
2022/08/11 03:28:34;;;;;;;5.38;2.80;;;;;;;18.84;74.68;102165.69;5085234;28;20051;-63
2022/08/11 03:31:16;;;;;;;6.50;3.22;;;;;;;18.87;74.78;102167.22;5084631;28;20040;-63
2022/08/11 03:34:02;;;;;;;5.43;2.75;;;;;;;18.78;75.50;102168.81;5082842;28;20521;-63
2022/08/11 03:36:59;;;;;;;6.65;2.90;;;;;;;18.75;75.47;102161.91;5084540;28;20545;-54
2022/08/11 03:39:59;;;;;;;5.70;3.20;;;;;;;18.75;75.70;102163.72;5082591;28;20084;-56
2022/08/11 03:42:34;;;;;;;6.15;3.13;;;;;;;18.73;75.81;102169.19;5084976;28;20047;-56
2022/08/11 03:45:17;;;;;;;6.43;3.20;;;;;;;18.72;75.87;102162.16;5082569;28;20093;-57
2022/08/11 03:47:58;;;;;;;5.80;3.20;;;;;;;18.66;76.64;102164.47;5079565;28;20044;-63
2022/08/11 03:51:02;;;;;;;7.75;3.42;;;;;;;18.56;77.00;102157.19;5086738;28;20048;-63
2022/08/11 03:53:54;;;;;;;7.35;3.50;;;;;;;18.57;77.44;102158.06;5086364;28;20047;-56
2022/08/11 03:56:56;;;;;;;7.43;3.28;;;;;;;18.56;77.44;102164.34;5083753;28;20051;-56
2022/08/11 03:59:46;;;;;;;7.03;3.28;;;;;;;18.48;78.22;102162.25;5083998;28;20051;-62
2022/08/11 04:02:35;;;;;;;7.40;3.55;;;;;;;18.51;77.89;102163.84;5080270;28;20040;-63
2022/08/11 04:05:41;;;;;;;6.50;3.20;;;;;;;18.51;78.03;102155.84;5091019;28;20356;-63
2022/08/11 04:08:30;;;;;;;8.05;3.53;;;;;;;18.53;77.93;102161.94;5085578;28;20076;-55
2022/08/11 04:11:37;;;;;;;7.60;3.45;;;;;;;18.45;78.67;102151.00;5081011;28;20067;-57
2022/08/11 04:17:46;;;;;;;5.38;3.38;;;;;;;18.37;79.04;102159.59;5082275;28;20528;-56
2022/08/11 04:20:52;;;;;;;7.13;3.40;;;;;;;18.42;78.47;102155.59;5086511;28;20052;-56
2022/08/11 04:23:48;;;;;;;7.32;3.47;;;;;;;18.41;78.98;102145.91;5082984;28;20089;-63
2022/08/11 04:27:07;;;;;;;6.82;3.53;;;;;;;18.41;78.56;102150.41;5073633;28;20044;-63
2022/08/11 04:30:01;;;;;;;12.30;3.95;;;;;;;18.37;78.99;102151.63;5092315;28;20044;-63
2022/08/11 04:33:04;;;;;;;7.68;3.40;;;;;;;18.35;79.23;102150.88;5075633;28;20087;-55
2022/08/11 04:35:45;;;;;;;7.82;3.65;;;;;;;18.35;79.13;102150.88;5092076;28;20452;-56
2022/08/11 04:38:58;;;;;;;7.33;3.90;;;;;;;18.32;79.58;102149.28;5094384;28;20567;-63
2022/08/11 04:45:12;;;;;;;6.38;3.63;;;;;;;18.25;80.25;102145.41;5084820;28;20066;-57
2022/08/11 05:03:29;;;;;;;9.82;4.38;;;;;;;18.32;80.55;102149.28;5092324;28;19927;-63
2022/08/11 05:06:43;;;;;;;6.53;3.90;;;;;;;18.35;80.71;102148.22;5097884;28;20105;-57
2022/08/11 05:09:46;;;;;;;9.80;3.58;;;;;;;18.36;81.15;102153.41;5100011;28;20040;-54
2022/08/11 05:12:28;;;;;;;6.55;3.70;;;;;;;18.30;80.90;102150.41;5083245;28;20052;-57
2022/08/11 05:35:29;;;;;;;8.15;4.20;;;;;;;18.48;81.17;102162.25;5113245;28;20164;-57
2022/08/11 05:58:03;;;;;;;7.70;4.10;;;;;;;19.00;78.39;102169.81;5090976;28;20048;-57
2022/08/11 06:00:41;;;;;;;8.38;4.10;;;;;;;19.08;78.11;102170.03;5076744;28;20086;-57
2022/08/11 06:03:11;;;;;;;8.57;3.75;;;;;;;19.17;77.28;102171.09;5081443;28;20044;-57
2022/08/11 06:05:41;;;;;;;9.25;4.20;;;;;;;19.25;76.25;102172.19;5081921;28;20086;-58
2022/08/11 06:08:12;;;;;;;7.97;3.80;;;;;;;19.34;77.32;102169.75;5080524;28;20178;-57
2022/08/11 06:10:43;;;;;;;9.20;3.42;;;;;;;19.45;76.64;102171.53;5082869;28;20089;-57
2022/08/11 06:13:15;;;;;;;9.20;4.18;;;;;;;19.55;76.06;102164.44;5070108;28;20093;-57
2022/08/11 06:15:49;;;;;;;7.18;3.55;;;;;;;19.65;75.75;102169.88;5074389;28;20048;-58
2022/08/11 06:18:18;;;;;;;7.55;4.22;;;;;;;19.74;75.11;102169.09;5077752;28;20707;-58
2022/08/11 06:20:47;;;;;;;7.15;3.97;;;;;;;19.88;73.95;102170.66;5071263;28;20036;-57
2022/08/11 06:23:18;;;;;;;7.57;4.25;;;;;;;19.98;73.62;102168.91;5080570;28;20124;-58
2022/08/11 06:25:47;;;;;;;7.55;4.25;;;;;;;20.07;71.03;102167.28;5078677;28;20571;-58
2022/08/11 06:28:18;;;;;;;8.70;4.68;;;;;;;20.12;71.58;102165.03;5080414;28;20063;-57
2022/08/11 06:30:50;;;;;;;7.88;4.30;;;;;;;20.26;70.35;102171.91;5085427;28;20514;-57
2022/08/11 06:33:29;;;;;;;7.05;4.20;;;;;;;20.35;69.88;102165.75;5087665;28;20478;-58
2022/08/11 06:36:10;;;;;;;10.77;4.88;;;;;;;20.43;70.39;102168.59;5076853;28;20649;-57
2022/08/11 06:43:51;;;;;;;9.10;4.13;;;;;;;20.72;67.99;102183.97;5092077;28;20059;-64
2022/08/11 06:46:31;;;;;;;8.90;4.80;;;;;;;20.85;67.79;102177.56;5089479;28;20573;-58
2022/08/11 06:49:01;;;;;;;8.75;4.22;;;;;;;21.00;67.55;102178.03;5091946;28;20479;-57
2022/08/11 06:51:30;;;;;;;8.15;4.45;;;;;;;21.16;67.44;102181.03;5112900;28;20067;-57
2022/08/11 06:54:01;;;;;;;7.70;4.35;;;;;;;21.22;66.31;102179.63;5099392;28;20155;-58
2022/08/11 07:02:33;;;;;;;7.43;4.00;;;;;;;21.71;63.56;102172.50;5092388;28;20067;-64
2022/08/11 07:05:08;;;;;;;7.93;4.00;;;;;;;21.85;62.42;102176.56;5095229;28;20055;-56
2022/08/11 07:17:31;;;;;;;8.90;3.72;;;;;;;22.60;59.67;102168.66;5084758;28;20048;-64
2022/08/11 07:31:31;;;;;;;6.90;3.30;;;;;;;23.46;55.22;102167.50;5086547;28;20064;-64
2022/08/11 07:34:13;;;;;;;7.20;3.05;;;;;;;23.66;55.06;102172.72;5089866;28;20048;-65
2022/08/11 07:36:49;;;;;;;7.45;3.70;;;;;;;23.85;53.54;102166.31;5072850;28;20434;-65
2022/08/11 07:39:21;;;;;;;7.80;3.53;;;;;;;23.95;51.92;102166.25;5069349;28;20063;-64
2022/08/11 07:41:53;;;;;;;6.43;3.38;;;;;;;24.14;52.85;102171.41;5078283;28;20044;-65
2022/08/11 07:44:24;;;;;;;9.20;3.88;;;;;;;24.31;52.51;102171.53;5085119;28;20047;-64
2022/08/11 07:52:38;;;;;;;6.38;3.50;;;;;;;24.85;50.78;102167.78;5089707;28;20051;-63
2022/08/11 07:55:11;;;;;;;7.85;3.75;;;;;;;25.04;48.92;102164.81;5081580;28;20067;-62
2022/08/11 08:17:56;;;;;;;7.80;3.05;;;;;;;26.46;46.59;102152.03;5079841;28;20044;-57
2022/08/11 08:20:48;;;;;;;6.75;3.42;;;;;;;26.73;46.29;102147.22;5083939;28;20048;-65
2022/08/11 08:23:31;;;;;;;8.90;2.85;;;;;;;26.98;45.50;102147.94;5079892;28;20060;-64
2022/08/11 08:26:04;;;;;;;7.32;2.90;;;;;;;27.21;44.59;102148.97;5081342;28;20028;-58
2022/08/11 08:28:45;;;;;;;7.95;3.05;;;;;;;27.35;44.23;102150.91;5082559;28;20048;-55
2022/08/11 08:31:14;;;;;;;8.50;3.30;;;;;;;27.35;42.79;102150.91;5073269;28;20123;-57
2022/08/11 08:33:43;;;;;;;8.35;3.17;;;;;;;27.53;42.66;102149.78;5078256;28;20070;-58
2022/08/11 08:36:14;;;;;;;7.07;3.33;;;;;;;27.65;41.90;102142.91;5078020;28;20053;-58
2022/08/11 08:38:48;;;;;;;8.13;3.00;;;;;;;27.89;40.61;102146.44;5075731;28;20059;-57
2022/08/11 08:41:22;;;;;;;6.28;3.10;;;;;;;27.87;39.42;102145.75;5091800;28;20081;-58
2022/08/11 08:43:54;;;;;;;6.07;3.20;;;;;;;27.93;41.62;102143.16;5085340;28;20549;-57
2022/08/11 08:46:46;;;;;;;7.68;3.00;;;;;;;28.19;41.41;102149.22;5084391;28;20640;-57
2022/08/11 08:49:18;;;;;;;5.43;2.77;;;;;;;28.42;38.70;102147.22;5089876;28;20081;-57
2022/08/11 08:51:52;;;;;;;6.07;2.63;;;;;;;28.57;39.82;102154.50;5080300;28;20473;-58
2022/08/11 08:54:44;;;;;;;9.32;3.20;;;;;;;28.66;40.10;102146.13;5078833;28;20485;-58
2022/08/11 08:57:13;;;;;;;7.78;2.88;;;;;;;28.94;40.23;102145.38;5081454;28;20085;-58
2022/08/11 08:59:45;;;;;;;8.57;3.17;;;;;;;29.10;40.39;102146.22;5078039;28;20037;-64
2022/08/11 09:02:20;;;;;;;7.45;3.25;;;;;;;29.22;36.26;102143.81;5086309;28;20072;-63
2022/08/11 09:05:03;;;;;;;9.35;2.80;;;;;;;29.37;37.40;102149.19;5094324;28;20052;-63
2022/08/11 09:07:33;;;;;;;8.25;3.22;;;;;;;29.54;37.76;102150.59;5094192;28;20074;-64
2022/08/11 09:10:10;;;;;;;8.75;3.00;;;;;;;29.67;37.42;102148.00;5092513;28;20136;-63
2022/08/11 09:12:41;;;;;;;5.15;2.70;;;;;;;29.99;35.58;102147.63;5075431;28;20048;-63
2022/08/11 09:15:12;;;;;;;8.75;2.53;;;;;;;30.22;37.45;102149.25;5080855;28;20066;-63
2022/08/11 09:17:48;;;;;;;6.43;2.80;;;;;;;30.47;36.54;102147.75;5083858;28;20048;-64
2022/08/11 09:20:20;;;;;;;6.40;2.70;;;;;;;30.58;34.05;102146.34;5106306;28;20499;-57
2022/08/11 09:28:48;;;;;;;6.65;2.58;;;;;;;31.17;35.00;102134.00;5096943;28;20118;-57
2022/08/11 09:31:16;;;;;;;5.60;2.30;;;;;;;31.34;34.32;102139.84;5081422;28;20050;-64
2022/08/11 09:33:52;;;;;;;7.95;2.83;;;;;;;31.33;33.51;102140.91;5073318;28;20086;-57
2022/08/11 09:41:55;;;;;;;7.55;3.05;;;;;;;31.60;33.05;102130.06;5080158;28;20044;-64
2022/08/11 09:44:47;;;;;;;6.78;2.67;;;;;;;31.64;31.84;102133.19;5090048;28;20384;-58
2022/08/11 09:47:23;;;;;;;8.18;3.10;;;;;;;31.62;30.97;102127.97;5093752;28;20097;-58
2022/08/11 09:49:55;;;;;;;9.00;2.90;;;;;;;31.96;31.10;102125.19;5087208;28;20495;-64
2022/08/11 09:52:24;;;;;;;6.97;2.55;;;;;;;32.18;31.08;102123.91;5073330;28;20055;-65
2022/08/11 09:54:54;;;;;;;5.20;2.20;;;;;;;32.10;29.88;102126.03;5082136;28;20055;-58
2022/08/11 10:00:13;;;;;;;5.82;2.55;;;;;;;32.37;30.88;102115.91;5078214;28;20031;-58
2022/08/11 10:02:44;;;;;;;5.70;2.90;;;;;;;32.53;30.54;102109.13;5071307;28;20048;-65
2022/08/11 10:08:03;;;;;;;4.97;2.63;;;;;;;32.99;30.14;102112.66;5075773;28;20094;-58
2022/08/11 10:10:35;;;;;;;6.00;2.55;;;;;;;33.20;28.44;102093.22;5078340;28;20101;-58
2022/08/11 10:13:08;;;;;;;6.07;2.38;;;;;;;33.27;29.14;102098.66;5077448;28;20040;-58
2022/08/11 10:15:59;;;;;;;6.60;2.53;;;;;;;33.13;28.18;102102.50;5079473;28;20403;-58
2022/08/11 10:18:51;;;;;;;5.82;2.65;;;;;;;33.07;29.95;102100.69;5075468;28;20155;-64
2022/08/11 10:21:33;;;;;;;6.60;2.40;;;;;;;33.20;28.36;102098.69;5076948;28;20067;-58
2022/08/11 10:26:53;;;;;;;4.22;2.33;;;;;;;33.48;28.50;102089.25;5075523;28;20052;-63
2022/08/11 10:35:27;;;;;;;4.38;2.30;;;;;;;33.47;27.65;102089.47;5106274;28;20097;-58
2022/08/11 10:37:56;;;;;;;6.20;2.50;;;;;;;33.68;26.75;102099.13;5096010;28;20059;-58
2022/08/11 10:40:39;;;;;;;6.63;2.33;;;;;;;33.77;27.06;102095.06;5079551;28;20135;-63
2022/08/11 10:43:12;;;;;;;7.25;2.30;;;;;;;33.75;27.93;102096.34;5070709;28;20241;-63
2022/08/11 10:48:37;;;;;;;4.82;2.30;;;;;;;34.22;25.72;102088.47;5082032;28;20055;-62
2022/08/11 10:51:12;;;;;;;4.82;1.98;;;;;;;34.31;25.08;102083.59;5075800;28;20526;-58
2022/08/11 10:59:19;;;;;;;5.15;1.95;;;;;;;35.06;23.35;102082.31;5071812;28;20044;-58
2022/08/11 11:01:49;;;;;;;4.63;2.00;;;;;;;34.83;23.09;102067.53;5075332;28;20123;-59
2022/08/11 11:04:18;;;;;;;5.75;2.42;;;;;;;34.90;23.39;102064.69;5086123;28;20048;-59
2022/08/11 11:06:59;;;;;;;6.45;2.30;;;;;;;34.87;23.77;102063.25;5092825;28;20052;-58
2022/08/11 11:09:31;;;;;;;6.90;2.15;;;;;;;35.09;23.48;102068.16;5091335;28;20056;-63
2022/08/11 11:18:00;;;;;;;4.47;1.95;;;;;;;35.24;22.15;102055.94;5092844;28;20533;-63
2022/08/11 11:20:33;;;;;;;4.85;1.90;;;;;;;35.62;23.09;102058.22;5092593;28;20047;-63
2022/08/11 11:23:10;;;;;;;4.85;1.95;;;;;;;35.64;21.49;102047.03;5092646;28;20415;-58
2022/08/11 11:26:09;;;;;;;3.35;1.85;;;;;;;35.68;21.31;102062.75;5091673;28;20060;-59
2022/08/11 11:29:08;;;;;;;4.43;2.03;;;;;;;35.77;21.37;102052.25;5096571;28;20067;-62
2022/08/11 11:31:50;;;;;;;4.65;2.00;;;;;;;36.09;21.22;102042.78;5096403;28;20040;-58
2022/08/11 11:34:26;;;;;;;;;;;;;;;35.97;21.01;102040.09;5096684;28;20052;-58
2022/08/11 11:36:56;;;;;;;4.25;1.90;;;;;;;35.54;21.06;102043.00;5096578;28;19920;-58
2022/08/11 11:39:27;;;;;;;4.63;2.03;;;;;;;35.46;22.17;102043.34;5096102;28;20134;-62
2022/08/11 11:41:57;;;;;;;3.92;1.95;;;;;;;35.79;21.44;102036.44;5094718;28;20048;-59
2022/08/11 11:44:26;;;;;;;3.33;1.73;;;;;;;36.12;21.73;102036.81;5096634;28;20052;-63
2022/08/11 11:46:55;;;;;;;4.22;2.13;;;;;;;36.48;19.85;102045.75;5095908;28;20075;-58
2022/08/11 11:49:31;;;;;;;5.22;1.80;;;;;;;35.96;19.35;102036.53;5095907;28;20102;-63
2022/08/11 11:52:00;;;;;;;4.90;2.00;;;;;;;36.24;19.41;102028.56;5095857;28;20087;-62
2022/08/11 11:54:31;;;;;;;3.55;2.10;;;;;;;35.97;19.55;102034.63;5095834;28;20043;-57
2022/08/11 12:01:14;;;;;;;3.83;1.88;;;;;;;35.85;19.93;102042.88;5095768;28;20051;-62
2022/08/11 12:02:40;;;;;;;4.18;1.90;;;;;;;36.49;19.44;102025.53;5095433;28;20047;-63
2022/08/11 12:05:11;;;;;;;5.47;1.77;;;;;;;36.54;20.11;102018.22;5095844;28;20052;-58
2022/08/11 12:10:43;;;;;;;4.72;1.90;;;;;;;36.84;19.78;102022.59;5079814;28;20075;-58
2022/08/11 12:16:02;;;;;;;3.15;2.05;;;;;;;37.23;19.24;102019.06;5096275;28;20055;-63
2022/08/11 12:18:52;;;;;;;4.95;1.80;;;;;;;37.42;18.75;102011.41;5096020;28;20137;-64
2022/08/11 12:21:24;;;;;;;4.97;1.80;;;;;;;37.87;18.66;102010.34;5096417;28;20048;-63
2022/08/11 12:29:46;;;;;;;6.00;1.95;;;;;;;37.86;18.22;102003.22;5094868;28;20089;-57
2022/08/11 12:32:23;;;;;;;3.40;1.55;;;;;;;37.97;16.74;101997.84;5095038;28;20048;-58
2022/08/11 12:34:51;;;;;;;3.92;1.60;;;;;;;38.11;17.10;101988.13;5094961;28;20105;-61
2022/08/11 12:37:28;;;;;;;4.22;1.90;;;;;;;38.32;17.48;101993.84;5094919;28;20097;-58
2022/08/11 12:46:09;;;;;;;4.47;1.73;;;;;;;38.25;17.85;101983.06;5038800;28;20136;-62
2022/08/11 12:54:51;;;;;;;4.05;1.80;;;;;;;38.20;16.37;101961.84;5094476;28;20055;-58
2022/08/11 13:05:54;;;;;;;7.28;1.98;;;;;;;38.43;16.11;101956.31;5092997;28;20048;-62
2022/08/11 13:08:24;;;;;;;7.60;2.07;;;;;;;38.29;16.43;101944.94;5093261;28;20083;-58
2022/08/11 13:13:45;;;;;;;4.22;1.90;;;;;;;38.71;17.94;101952.44;5094393;28;20044;-62
2022/08/11 13:16:26;;;;;;;5.40;2.08;;;;;;;38.33;16.83;101946.06;5094704;28;20493;-62
2022/08/11 13:18:56;;;;;;;5.13;2.05;;;;;;;38.65;16.60;101951.53;5094359;28;20054;-57
2022/08/11 13:21:24;;;;;;;3.05;1.83;;;;;;;38.49;15.89;101945.13;5094244;28;20044;-61
2022/08/11 13:23:55;;;;;;;4.47;1.70;;;;;;;38.60;16.73;101942.41;5094134;28;20048;-57
2022/08/11 13:26:37;;;;;;;7.55;1.90;;;;;;;38.65;16.77;101934.22;5094109;28;20062;-62
2022/08/11 13:29:19;;;;;;;3.78;1.80;;;;;;;38.97;17.41;101933.34;5094233;28;20052;-56
2022/08/11 13:31:48;;;;;;;4.20;1.80;;;;;;;39.38;16.44;101936.34;5094032;28;20050;-57
2022/08/11 13:34:17;;;;;;;3.20;1.90;;;;;;;39.35;16.89;101934.13;5094185;28;20044;-61
2022/08/11 13:36:50;;;;;;;3.50;1.80;;;;;;;39.32;17.51;101934.66;5094249;28;20125;-56
2022/08/11 13:39:21;;;;;;;4.32;2.03;;;;;;;39.12;16.71;101936.19;5093774;28;20411;-57
2022/08/11 13:41:55;;;;;;;5.30;2.00;;;;;;;39.09;17.40;101931.22;5093382;28;20036;-62
2022/08/11 13:44:27;;;;;;;3.03;1.88;;;;;;;39.32;16.50;101934.66;5093164;28;20047;-57
2022/08/11 13:46:59;;;;;;;4.73;1.93;;;;;;;39.34;16.14;101927.78;5092166;28;20044;-61
2022/08/11 13:49:30;;;;;;;4.65;1.90;;;;;;;39.19;16.62;101928.56;5092346;28;20080;-61
2022/08/11 13:52:00;;;;;;;5.38;1.70;;;;;;;39.50;16.50;101919.59;5093575;28;20093;-57
2022/08/11 13:54:33;;;;;;;3.15;1.90;;;;;;;39.35;15.91;101928.59;5093527;28;20529;-58
2022/08/11 13:57:05;;;;;;;3.97;2.00;;;;;;;39.35;16.64;101928.59;5093841;28;20487;-62
2022/08/11 13:59:37;;;;;;;5.75;2.10;;;;;;;39.25;15.46;101928.59;5093912;28;20055;-57
2022/08/11 14:02:28;;;;;;;3.83;1.90;;;;;;;39.35;15.49;101912.09;5093236;28;20097;-61
2022/08/11 14:05:02;;;;;;;5.13;1.80;;;;;;;38.78;16.45;101914.56;5093366;28;20503;-62
2022/08/11 14:07:37;;;;;;;4.28;2.00;;;;;;;38.80;16.41;101920.59;5093345;28;20571;-57
2022/08/11 14:10:09;;;;;;;4.90;2.00;;;;;;;38.86;15.75;101914.06;5093647;28;20103;-57
2022/08/11 14:15:32;;;;;;;4.70;1.90;;;;;;;38.85;16.91;101908.84;5093082;28;20526;-61
2022/08/11 14:18:05;;;;;;;5.75;1.80;;;;;;;38.79;16.97;101909.88;5092837;28;20174;-58
2022/08/11 14:23:27;;;;;;;3.45;2.00;;;;;;;38.84;15.98;101905.25;5092921;28;20446;-61
2022/08/11 14:28:44;;;;;;;4.82;1.85;;;;;;;39.05;15.94;101906.19;5093242;28;20047;-62
2022/08/11 14:31:14;;;;;;;4.40;2.10;;;;;;;39.24;15.56;101894.75;5092819;28;20052;-57
2022/08/11 14:33:43;;;;;;;3.78;1.95;;;;;;;39.09;15.83;101898.22;5092664;28;20044;-58
2022/08/11 14:36:32;;;;;;;3.85;1.98;;;;;;;38.95;16.01;101888.81;5092210;28;20486;-59
2022/08/11 14:39:04;;;;;;;4.72;1.85;;;;;;;39.08;15.65;101891.09;5093224;28;20059;-58
2022/08/11 14:47:33;;;;;;;5.22;1.95;;;;;;;39.03;15.80;101889.13;5092623;28;20047;-61
2022/08/11 14:50:02;;;;;;;;;;;;;;;38.68;16.25;101876.84;5093762;28;20044;-60
2022/08/11 14:52:44;;;;;;;4.65;1.90;;;;;;;38.69;16.33;101883.16;5092962;28;19923;-58
2022/08/11 14:58:00;;;;;;;5.75;2.00;;;;;;;38.54;16.16;101883.88;5092617;28;20541;-58
2022/08/11 15:00:30;;;;;;;4.43;1.92;;;;;;;38.48;17.44;101877.53;5093404;28;20411;-58
2022/08/11 15:03:11;;;;;;;4.70;1.95;;;;;;;38.45;16.65;101880.81;5096934;28;20042;-58
2022/08/11 15:05:46;;;;;;;5.30;1.73;;;;;;;38.27;16.15;101872.97;5097159;28;20563;-58
2022/08/11 15:14:05;;;;;;;3.90;1.95;;;;;;;37.65;16.58;101869.59;5097117;28;20457;-58
2022/08/11 15:19:31;;;;;;;4.35;1.95;;;;;;;37.60;18.27;101864.06;5096845;28;20499;-58
2022/08/11 15:24:57;;;;;;;6.00;2.10;;;;;;;37.21;16.88;101854.81;5096625;28;20052;-60
2022/08/11 15:38:44;;;;;;;2.92;1.73;;;;;;;36.71;18.02;101840.16;5096288;28;20044;-57
2022/08/11 15:47:18;;;;;;;3.60;1.60;;;;;;;36.42;17.54;101833.16;5096096;28;20505;-63
2022/08/11 15:49:51;;;;;;;3.63;1.80;;;;;;;35.92;18.10;101827.41;5095981;28;20046;-58
2022/08/11 15:52:47;;;;;;;4.03;1.75;;;;;;;35.84;18.46;101833.28;5096035;28;20048;-58
2022/08/11 15:55:17;;;;;;;4.50;1.60;;;;;;;35.57;18.41;101824.84;5096161;28;20048;-58
2022/08/11 16:06:40;;;;;;;4.65;2.08;;;;;;;34.96;19.16;101823.34;5095659;28;20142;-63
2022/08/11 16:09:20;;;;;;;4.20;2.00;;;;;;;34.91;18.81;101812.28;5095784;28;20377;-58
2022/08/11 16:11:48;;;;;;;;;;;;;;;34.68;19.50;101816.69;5095691;28;20048;-57
2022/08/11 16:17:06;;;;;;;4.28;1.92;;;;;;;34.53;19.55;101806.22;5095659;28;20101;-58
2022/08/11 16:19:37;;;;;;;3.85;2.00;;;;;;;34.19;20.05;101814.13;5095543;28;20040;-58
2022/08/11 16:22:11;;;;;;;3.60;1.85;;;;;;;34.23;21.35;101805.50;5095356;28;20040;-63
2022/08/11 16:24:44;;;;;;;3.50;1.73;;;;;;;34.34;20.69;101801.97;5093822;28;20052;-58
2022/08/11 16:27:36;;;;;;;4.95;2.00;;;;;;;34.11;21.27;101803.56;5095001;28;20560;-57
2022/08/11 16:30:05;;;;;;;6.67;2.30;;;;;;;34.12;21.37;101804.41;5095091;28;20494;-58
2022/08/11 16:32:36;;;;;;;2.92;1.80;;;;;;;34.02;21.38;101805.00;5094911;28;20055;-57
2022/08/11 16:40:44;;;;;;;4.78;2.13;;;;;;;33.95;20.67;101804.25;5094795;28;20051;-63
2022/08/11 16:49:03;;;;;;;4.10;2.00;;;;;;;33.56;20.94;101801.88;5070370;28;20056;-62
2022/08/11 16:51:32;;;;;;;4.15;1.83;;;;;;;33.63;20.63;101799.88;5094451;28;20414;-63
2022/08/11 16:54:01;;;;;;;5.28;2.08;;;;;;;33.47;21.47;101797.78;5094928;28;20487;-62
2022/08/11 16:56:38;;;;;;;3.72;2.00;;;;;;;33.35;21.84;101797.75;5094527;28;20529;-57
2022/08/11 16:59:15;;;;;;;4.85;2.05;;;;;;;33.41;21.07;101793.28;5094729;28;20052;-60
2022/08/11 17:01:51;;;;;;;5.75;1.80;;;;;;;33.10;22.14;101790.47;5094486;28;20101;-58
2022/08/11 17:13:23;;;;;;;4.40;1.90;;;;;;;33.10;22.62;101787.75;5094557;28;20058;-62
2022/08/11 17:16:10;;;;;;;4.68;1.85;;;;;;;33.19;23.29;101786.38;5094480;28;20047;-63